Time;durP1;ratioP1;P1;durP2;ratioP2;P2;SDS_P1;SDS_P2;PMS_P1;PMS_P2;Temp;Humidity;BMP_temperature;BMP_pressure;BME280_temperature;BME280_humidity;BME280_pressure;Samples;Min_cycle;Max_cycle;Signal;HPM_P1;HPM_P2
2023/04/16 00:02:50;;;;;;;21.60;16.60;;;;;;;10.09;63.59;98628.33;222418;183;138795;-73
2023/04/16 00:07:54;;;;;;;25.60;16.50;;;;;;;9.93;63.25;98638.42;223022;183;147609;-74
2023/04/16 00:12:58;;;;;;;23.10;17.10;;;;;;;9.77;63.44;98640.52;221296;182;139393;-73
2023/04/16 00:18:01;;;;;;;23.80;17.50;;;;;;;9.62;63.87;98647.66;223897;183;137496;-73
2023/04/16 00:23:04;;;;;;;29.10;17.30;;;;;;;9.47;64.14;98650.58;223804;182;147017;-73
2023/04/16 00:28:08;;;;;;;27.60;17.70;;;;;;;9.38;64.29;98650.45;223690;183;139333;-73
2023/04/16 00:33:13;;;;;;;26.80;18.10;;;;;;;9.28;64.47;98646.84;223805;183;137500;-73
2023/04/16 00:38:17;;;;;;;31.60;22.00;;;;;;;9.22;64.80;98647.23;223779;183;147815;-73
2023/04/16 00:43:23;;;;;;;25.90;17.60;;;;;;;9.27;65.50;98652.94;223806;183;138675;-73
2023/04/16 00:48:27;;;;;;;28.60;19.90;;;;;;;9.32;65.49;98661.12;223802;183;137218;-73
2023/04/16 00:53:30;;;;;;;29.60;20.80;;;;;;;9.38;65.67;98669.42;223825;183;147050;-73
2023/04/16 00:58:34;;;;;;;27.80;20.20;;;;;;;9.41;65.27;98681.77;223866;183;138561;-73
2023/04/16 01:03:46;;;;;;;27.40;20.30;;;;;;;9.42;65.69;98691.83;223814;182;139122;-73
2023/04/16 01:08:50;;;;;;;30.70;21.40;;;;;;;9.40;65.71;98696.52;223761;183;147546;-73
2023/04/16 01:13:53;;;;;;;30.00;20.30;;;;;;;9.37;65.85;98702.23;223717;183;138540;-73
2023/04/16 01:18:57;;;;;;;29.50;21.20;;;;;;;9.32;66.11;98703.77;223850;182;137291;-73
2023/04/16 01:24:03;;;;;;;29.50;19.80;;;;;;;9.31;66.23;98705.83;223724;184;149014;-73
2023/04/16 01:29:07;;;;;;;27.60;20.40;;;;;;;9.33;66.05;98703.05;223843;183;138308;-73
2023/04/16 01:34:12;;;;;;;28.70;21.10;;;;;;;9.31;65.83;98699.94;221985;183;137590;-73
2023/04/16 01:39:16;;;;;;;30.30;20.80;;;;;;;9.29;65.81;98695.27;223720;184;148052;-74
2023/04/16 01:44:20;;;;;;;26.80;19.40;;;;;;;9.28;65.76;98693.94;223812;183;140483;-74
2023/04/16 01:49:24;;;;;;;24.30;18.90;;;;;;;9.25;65.82;98697.35;223754;183;137289;-74
2023/04/16 01:54:27;;;;;;;28.30;18.30;;;;;;;9.24;65.87;98693.46;223843;183;147438;-74
2023/04/16 01:59:31;;;;;;;25.20;17.80;;;;;;;9.26;65.66;98688.77;223631;183;140055;-74
2023/04/16 02:04:34;;;;;;;23.30;17.70;;;;;;;9.19;65.78;98679.30;223890;183;137970;-74
2023/04/16 02:15:24;;;;;;;30.50;19.20;;;;;;;9.40;65.63;98688.91;223804;183;139089;-75
2023/04/16 02:20:27;;;;;;;23.00;16.50;;;;;;;9.51;65.13;98693.25;223783;182;136559;-74
2023/04/16 02:25:40;;;;;;;24.10;17.40;;;;;;;9.48;65.00;98696.92;223778;183;147291;-75
2023/04/16 02:30:44;;;;;;;23.60;18.60;;;;;;;9.42;65.02;98698.20;223806;182;138353;-75
2023/04/16 02:35:48;;;;;;;28.40;19.90;;;;;;;9.31;65.32;98698.22;222522;182;137288;-74
2023/04/16 02:40:52;;;;;;;27.90;19.90;;;;;;;9.27;65.57;98708.71;223525;182;146968;-73
2023/04/16 02:45:55;;;;;;;28.20;19.80;;;;;;;9.30;65.58;98713.86;220656;182;139010;-73
2023/04/16 02:51:05;;;;;;;28.70;20.30;;;;;;;9.24;65.58;98718.62;223831;183;138059;-74
2023/04/16 02:56:09;;;;;;;36.30;19.40;;;;;;;9.17;65.80;98722.74;223838;183;147162;-74
2023/04/16 03:01:12;;;;;;;26.60;19.10;;;;;;;9.09;64.96;98739.20;223797;183;138815;-74
2023/04/16 03:06:16;;;;;;;30.70;19.40;;;;;;;8.92;64.73;98737.40;223710;183;136751;-74
2023/04/16 03:11:19;;;;;;;25.40;18.30;;;;;;;8.75;65.09;98741.75;223828;182;147623;-74
2023/04/16 03:16:23;;;;;;;30.40;18.60;;;;;;;8.67;65.13;98747.91;220255;183;139134;-75
2023/04/16 03:21:26;;;;;;;29.50;18.80;;;;;;;8.57;65.01;98755.21;223842;183;136849;-74
2023/04/16 03:26:30;;;;;;;28.50;18.60;;;;;;;8.45;65.23;98762.59;222130;183;147605;-74
2023/04/16 03:31:33;;;;;;;30.00;18.20;;;;;;;8.43;65.66;98767.85;223744;184;138538;-74
2023/04/16 03:36:37;;;;;;;28.40;18.80;;;;;;;8.41;65.57;98781.23;223818;182;137939;-74
2023/04/16 03:41:40;;;;;;;30.20;19.60;;;;;;;8.37;65.46;98788.16;223775;182;147712;-75
2023/04/16 03:46:44;;;;;;;32.90;20.70;;;;;;;8.33;65.37;98794.05;223790;184;138455;-75
2023/04/16 03:51:47;;;;;;;32.70;20.50;;;;;;;8.26;65.39;98800.23;223817;183;137448;-74
2023/04/16 03:56:51;;;;;;;36.00;20.60;;;;;;;8.19;65.58;98805.39;223362;183;148402;-74
2023/04/16 04:01:54;;;;;;;35.10;20.20;;;;;;;8.14;65.44;98818.63;223024;183;137601;-74
2023/04/16 04:06:58;;;;;;;30.60;20.20;;;;;;;8.07;65.57;98823.41;221441;183;137148;-72
2023/04/16 04:18:27;;;;;;;30.10;20.00;;;;;;;7.90;65.56;98825.59;223640;184;138407;-73
2023/04/16 04:23:30;;;;;;;28.80;20.30;;;;;;;7.83;65.90;98832.81;223810;183;137530;-73
2023/04/16 04:28:34;;;;;;;28.90;20.80;;;;;;;7.78;65.94;98843.52;223916;183;147076;-73
2023/04/16 04:33:38;;;;;;;30.30;21.90;;;;;;;7.79;66.54;98859.18;223765;183;138432;-73
2023/04/16 04:38:41;;;;;;;28.70;20.40;;;;;;;7.87;66.91;98864.91;223438;183;138137;-73
2023/04/16 04:43:45;;;;;;;30.60;21.80;;;;;;;8.06;66.89;98864.09;223734;182;147614;-73
2023/04/16 04:48:48;;;;;;;33.40;22.10;;;;;;;8.13;66.53;98869.55;223811;183;138274;-75
2023/04/16 04:53:52;;;;;;;42.50;30.40;;;;;;;8.17;66.53;98871.42;223717;183;138165;-74
2023/04/16 04:58:56;;;;;;;34.40;25.80;;;;;;;8.23;66.59;98870.77;223366;183;147716;-74
2023/04/16 05:04:00;;;;;;;55.70;38.80;;;;;;;8.26;66.40;98870.23;223732;183;138119;-73
2023/04/16 05:09:03;;;;;;;33.40;23.00;;;;;;;8.37;66.71;98874.42;222428;182;140293;-71
2023/04/16 05:14:07;;;;;;;32.60;21.80;;;;;;;8.50;66.92;98879.55;220011;183;148134;-76
2023/04/16 05:19:10;;;;;;;29.60;20.90;;;;;;;8.66;67.06;98891.34;220744;183;138899;-76
2023/04/16 05:24:14;;;;;;;28.50;19.50;;;;;;;8.81;67.04;98904.34;218673;179;137219;-79
2023/04/16 05:29:17;;;;;;;31.20;20.70;;;;;;;8.85;66.85;98909.04;222108;183;147377;-77
2023/04/16 05:34:21;;;;;;;28.30;20.10;;;;;;;8.91;67.13;98911.34;220295;183;138477;-73
2023/04/16 05:39:24;;;;;;;25.80;17.70;;;;;;;9.14;66.91;98915.00;223321;183;139204;-75
2023/04/16 05:44:27;;;;;;;117.90;84.30;;;;;;;9.33;66.77;98916.39;223820;183;147587;-74
2023/04/16 05:49:31;;;;;;;32.40;22.90;;;;;;;9.59;66.30;98912.16;223773;182;138643;-73
2023/04/16 05:54:34;;;;;;;27.70;19.40;;;;;;;9.77;66.19;98907.35;223773;182;137753;-72
2023/04/16 05:59:38;;;;;;;31.30;20.40;;;;;;;9.85;65.71;98911.79;223853;183;147413;-74
2023/04/16 06:04:41;;;;;;;27.80;19.20;;;;;;;9.89;65.79;98914.39;223916;183;138350;-77
2023/04/16 06:09:44;;;;;;;30.90;20.30;;;;;;;10.02;65.73;98915.54;220920;183;137625;-75
2023/04/16 06:14:51;;;;;;;115.80;78.40;;;;;;;10.08;65.77;98917.65;223834;183;147201;-75
2023/04/16 06:19:54;;;;;;;31.60;22.60;;;;;;;10.22;65.89;98916.98;223742;183;138730;-72
2023/04/16 06:24:57;;;;;;;36.80;22.60;;;;;;;10.31;66.01;98923.14;223417;183;136907;-72
2023/04/16 06:30:01;;;;;;;34.50;22.40;;;;;;;10.35;66.28;98930.88;222649;183;147853;-72
2023/04/16 06:35:05;;;;;;;33.10;21.40;;;;;;;10.37;66.53;98936.81;222954;182;139661;-72
2023/04/16 06:40:09;;;;;;;113.70;78.60;;;;;;;10.44;67.69;98943.10;223838;183;138262;-73
2023/04/16 06:45:12;;;;;;;35.10;22.90;;;;;;;10.83;67.31;98943.27;223954;182;147129;-74
2023/04/16 06:50:16;;;;;;;31.90;21.50;;;;;;;10.97;66.02;98946.25;223274;183;138911;-73
2023/04/16 06:55:19;;;;;;;38.10;23.90;;;;;;;11.05;65.78;98949.83;223784;183;137497;-76
2023/04/16 07:00:22;;;;;;;37.40;22.90;;;;;;;10.99;65.68;98953.40;223552;183;147695;-74
2023/04/16 07:05:26;;;;;;;34.20;21.80;;;;;;;10.99;65.89;98958.77;223834;183;139041;-74
2023/04/16 07:10:30;;;;;;;197.10;120.60;;;;;;;11.10;65.67;98959.30;221783;183;137013;-75
2023/04/16 07:15:33;;;;;;;37.60;22.70;;;;;;;11.27;65.34;98962.39;223591;183;148058;-72
2023/04/16 07:20:36;;;;;;;34.60;22.00;;;;;;;11.31;64.96;98966.58;223795;183;139000;-70
2023/04/16 07:25:40;;;;;;;36.90;24.30;;;;;;;11.31;65.13;98968.91;223792;183;138245;-72
2023/04/16 07:30:44;;;;;;;33.80;21.20;;;;;;;11.37;65.56;98974.55;223850;182;147043;-63
2023/04/16 07:35:47;;;;;;;32.60;20.30;;;;;;;11.78;66.84;98980.86;223788;182;138160;-72
2023/04/16 07:40:51;;;;;;;36.00;22.80;;;;;;;12.00;64.70;98978.29;223828;183;137219;-73
2023/04/16 07:45:54;;;;;;;45.40;26.30;;;;;;;12.04;64.73;98982.96;223728;183;147895;-74
2023/04/16 07:50:57;;;;;;;33.10;20.90;;;;;;;12.14;64.92;98990.30;223820;183;138551;-73
2023/04/16 07:56:01;;;;;;;37.10;21.70;;;;;;;12.15;64.11;98997.39;223818;183;138037;-74
2023/04/16 08:01:04;;;;;;;31.00;20.20;;;;;;;12.17;63.49;99005.04;223119;183;147015;-74
2023/04/16 08:12:17;;;;;;;25.10;15.50;;;;;;;12.23;62.07;99011.74;223835;183;136953;-74
2023/04/16 08:17:21;;;;;;;26.90;16.70;;;;;;;12.15;61.64;99012.50;223807;182;147095;-74
2023/04/16 08:22:25;;;;;;;53.50;37.30;;;;;;;12.14;62.21;99012.36;223230;183;139075;-74
2023/04/16 08:27:28;;;;;;;28.90;17.80;;;;;;;12.32;62.32;99018.42;222058;183;136970;-73
2023/04/16 08:32:31;;;;;;;20.90;13.10;;;;;;;12.45;61.65;99021.40;223328;183;147069;-74
2023/04/16 08:37:34;;;;;;;192.80;124.10;;;;;;;12.53;60.70;99013.05;222432;183;139988;-73
2023/04/16 08:42:49;;;;;;;48.10;34.50;;;;;;;12.83;60.56;99010.52;223762;184;138014;-72
2023/04/16 08:47:52;;;;;;;13.90;10.00;;;;;;;13.12;58.92;99009.14;222086;182;147597;-76
2023/04/16 08:53:05;;;;;;;12.90;7.80;;;;;;;13.22;57.77;99016.61;223827;183;138335;-73
2023/04/16 08:58:13;;;;;;;15.40;9.90;;;;;;;13.22;57.23;99016.11;223804;182;138319;-75
2023/04/16 09:03:20;;;;;;;70.70;47.90;;;;;;;13.42;57.47;99018.23;222919;183;146452;-73
2023/04/16 09:08:25;;;;;;;10.30;7.10;;;;;;;13.65;56.93;99013.45;223733;183;138689;-73
2023/04/16 09:13:30;;;;;;;10.00;6.90;;;;;;;13.82;55.67;99014.69;223792;183;137314;-73
2023/04/16 09:18:34;;;;;;;7.80;5.20;;;;;;;14.05;54.70;99012.89;223858;183;147205;-73
2023/04/16 09:23:40;;;;;;;251.70;181.30;;;;;;;14.28;53.83;99013.30;223635;183;138417;-72
2023/04/16 09:28:45;;;;;;;6.80;5.30;;;;;;;14.52;52.18;99010.77;223839;184;137641;-73
2023/04/16 09:34:08;;;;;;;7.20;4.50;;;;;;;14.67;51.31;99014.23;223785;183;147671;-74
2023/04/16 09:39:21;;;;;;;254.20;172.90;;;;;;;14.77;51.19;99012.54;223817;183;138800;-74
2023/04/16 09:44:35;;;;;;;6.80;4.40;;;;;;;14.98;50.75;99013.64;223698;183;137841;-73
2023/04/16 09:49:42;;;;;;;3.70;2.40;;;;;;;15.13;49.22;99013.36;223776;183;146858;-73
2023/04/16 09:54:52;;;;;;;4.10;2.30;;;;;;;15.32;48.94;99015.59;223688;184;139173;-74
2023/04/16 10:00:06;;;;;;;5.60;2.70;;;;;;;15.56;48.33;99019.86;222582;183;136976;-76
2023/04/16 10:05:16;;;;;;;5.00;2.50;;;;;;;15.76;47.37;99024.48;223862;183;147684;-72
2023/04/16 10:10:20;;;;;;;3.40;2.90;;;;;;;15.93;46.54;99018.39;223812;183;138381;-72
2023/04/16 10:15:24;;;;;;;6.00;4.00;;;;;;;16.16;47.75;99012.87;223765;183;137607;-72
2023/04/16 10:20:27;;;;;;;3.10;2.70;;;;;;;16.40;47.45;99010.08;223739;183;147944;-71
2023/04/16 10:25:31;;;;;;;3.90;2.70;;;;;;;16.65;47.35;99009.11;223681;183;138523;-73
2023/04/16 10:30:36;;;;;;;2.90;2.00;;;;;;;16.85;47.25;99007.61;223445;183;137237;-74
2023/04/16 10:35:40;;;;;;;3.10;2.20;;;;;;;17.10;44.57;99004.86;219180;183;147127;-75
2023/04/16 10:40:43;;;;;;;10.70;6.70;;;;;;;17.30;44.86;99005.51;217661;205;139098;-64
2023/04/16 10:45:47;;;;;;;20.90;13.00;;;;;;;17.79;44.01;99003.55;223624;183;137728;-62
2023/04/16 10:50:59;;;;;;;7.70;5.50;;;;;;;18.27;44.14;99001.98;223610;183;149924;-62
2023/04/16 10:56:05;;;;;;;4.00;2.40;;;;;;;18.83;43.47;99000.95;223639;182;138612;-63
2023/04/16 11:01:13;;;;;;;4.70;3.30;;;;;;;18.89;40.32;99003.17;218861;182;137222;-66
2023/04/16 11:06:23;;;;;;;3.40;2.70;;;;;;;18.67;39.88;99010.12;223538;183;148899;-63
2023/04/16 11:11:36;;;;;;;1.90;1.50;;;;;;;18.66;39.26;99007.95;223536;216;138713;-63
2023/04/16 11:16:40;;;;;;;2.10;1.70;;;;;;;18.58;37.59;99011.23;223668;196;137536;-63
2023/04/16 11:21:44;;;;;;;3.00;2.10;;;;;;;18.49;37.89;99008.66;223687;183;147497;-63
2023/04/16 11:26:50;;;;;;;3.00;1.80;;;;;;;18.67;38.07;99015.78;223545;184;138912;-63
2023/04/16 11:31:54;;;;;;;3.90;2.30;;;;;;;19.01;38.82;99015.95;221487;182;136916;-64
2023/04/16 11:36:58;;;;;;;2.00;1.60;;;;;;;19.30;38.00;99015.09;223556;183;147043;-61
2023/04/16 11:42:01;;;;;;;3.10;1.80;;;;;;;19.43;38.44;99016.11;223527;183;138515;-63
2023/04/16 11:47:06;;;;;;;3.10;2.00;;;;;;;19.39;38.02;99018.31;223723;216;140277;-63
2023/04/16 11:52:10;;;;;;;2.30;1.80;;;;;;;19.16;37.08;99019.45;223596;183;148198;-62
2023/04/16 11:57:14;;;;;;;3.10;2.10;;;;;;;18.95;37.71;99017.07;217903;183;138910;-63
2023/04/16 12:02:17;;;;;;;23.30;15.80;;;;;;;18.94;38.96;99018.38;223096;182;137579;-66
2023/04/16 12:07:20;;;;;;;15.50;9.30;;;;;;;18.94;39.18;99019.17;220304;183;148169;-67
2023/04/16 12:12:26;;;;;;;14.20;9.70;;;;;;;18.93;39.50;99016.00;223455;182;138598;-67
2023/04/16 12:17:32;;;;;;;7.80;6.00;;;;;;;18.88;39.69;99017.40;223653;183;138487;-66
2023/04/16 12:22:43;;;;;;;6.40;4.50;;;;;;;18.91;39.86;99017.77;223520;216;148058;-67
2023/04/16 12:27:54;;;;;;;6.50;3.60;;;;;;;19.14;39.99;99013.91;223478;184;138928;-67
2023/04/16 12:33:19;;;;;;;6.30;3.60;;;;;;;19.30;40.30;99005.48;221315;182;136669;-65
2023/04/16 12:38:24;;;;;;;4.30;3.30;;;;;;;19.57;40.83;99003.59;220023;183;148234;-67
2023/04/16 12:43:27;;;;;;;48.90;34.70;;;;;;;19.80;40.76;99001.44;223592;183;138898;-66
2023/04/16 12:48:32;;;;;;;20.30;14.20;;;;;;;19.83;39.25;98999.20;223560;183;137717;-63
2023/04/16 12:53:35;;;;;;;21.80;14.20;;;;;;;19.95;40.39;98995.27;223807;183;148048;-64
2023/04/16 12:58:39;;;;;;;26.20;14.90;;;;;;;20.15;40.55;98994.66;223745;183;139088;-61
2023/04/16 13:03:42;;;;;;;25.00;12.90;;;;;;;20.22;40.19;98989.98;223526;183;139829;-63
2023/04/16 13:08:46;;;;;;;46.10;14.40;;;;;;;20.16;40.19;98991.33;223257;183;147980;-65
2023/04/16 13:13:50;;;;;;;18.70;6.50;;;;;;;20.30;40.83;98986.05;223620;183;139565;-63
2023/04/16 13:18:53;;;;;;;51.70;46.20;;;;;;;20.41;39.94;98992.13;223693;183;136991;-63
2023/04/16 13:23:57;;;;;;;34.70;20.20;;;;;;;20.47;39.13;98986.80;223671;183;147728;-69
2023/04/16 13:29:00;;;;;;;13.90;6.60;;;;;;;20.42;38.41;98987.21;223767;183;139480;-65
2023/04/16 13:34:04;;;;;;;11.20;4.30;;;;;;;20.45;38.65;98984.71;223677;183;136765;-66
2023/04/16 13:39:10;;;;;;;20.00;6.90;;;;;;;20.55;38.27;98986.39;223796;183;147564;-66
2023/04/16 13:44:20;;;;;;;9.90;4.10;;;;;;;20.59;38.04;98984.77;223689;183;140044;-65
2023/04/16 13:49:23;;;;;;;5.00;2.80;;;;;;;20.45;38.04;98982.18;223753;183;137000;-65
2023/04/16 13:54:26;;;;;;;16.10;11.50;;;;;;;20.32;38.14;98985.88;223724;183;148010;-66
2023/04/16 13:59:30;;;;;;;8.60;7.10;;;;;;;20.12;37.23;98987.55;221153;183;139773;-67
2023/04/16 14:04:33;;;;;;;35.40;31.40;;;;;;;19.85;37.86;98985.27;223786;183;136937;-68
2023/04/16 14:09:37;;;;;;;9.10;7.70;;;;;;;19.62;38.03;98983.70;223834;183;146802;-73
2023/04/16 14:14:41;;;;;;;3.70;2.80;;;;;;;19.43;37.87;98983.21;223635;183;138775;-72
2023/04/16 14:19:44;;;;;;;4.80;2.40;;;;;;;19.40;37.89;98977.39;223644;183;137175;-72
2023/04/16 14:24:48;;;;;;;6.10;2.50;;;;;;;19.54;37.71;98980.95;223654;183;147447;-72
2023/04/16 14:29:51;;;;;;;2.60;2.10;;;;;;;19.54;37.39;98977.63;223638;182;139443;-71
2023/04/16 14:34:55;;;;;;;6.50;2.60;;;;;;;19.39;37.30;98975.35;223755;183;136427;-72
2023/04/16 14:39:59;;;;;;;3.50;2.50;;;;;;;19.22;37.26;98974.45;223696;183;147591;-72
2023/04/16 14:45:05;;;;;;;3.50;2.60;;;;;;;19.08;37.63;98978.95;223580;184;139214;-72
2023/04/16 14:50:10;;;;;;;4.10;2.20;;;;;;;18.99;38.50;98977.47;223738;183;138515;-73
2023/04/16 14:55:13;;;;;;;4.30;3.30;;;;;;;18.86;38.63;98980.75;223685;183;147785;-72
2023/04/16 15:00:17;;;;;;;3.40;2.40;;;;;;;18.69;38.70;98984.48;223715;183;138536;-74
2023/04/16 15:05:21;;;;;;;3.60;2.80;;;;;;;18.56;39.34;98984.80;223751;183;136744;-70
2023/04/16 15:10:25;;;;;;;263.20;214.40;;;;;;;18.45;39.65;98986.09;223829;183;148173;-70
2023/04/16 15:15:29;;;;;;;16.00;13.10;;;;;;;18.41;41.14;98986.41;223648;183;139217;-67
2023/04/16 15:20:32;;;;;;;13.20;9.30;;;;;;;18.32;41.11;98986.75;223813;183;138412;-67
2023/04/16 15:25:36;;;;;;;5.70;3.50;;;;;;;18.22;41.34;98986.80;223630;183;147077;-66
2023/04/16 15:30:40;;;;;;;4.40;3.30;;;;;;;18.11;41.13;98987.48;223361;183;138593;-66
2023/04/16 15:35:44;;;;;;;7.70;5.70;;;;;;;18.02;41.49;98987.93;221228;183;138767;-67
2023/04/16 15:40:48;;;;;;;5.40;4.30;;;;;;;18.02;42.70;98988.14;223788;183;147145;-66
2023/04/16 15:45:51;;;;;;;5.60;4.30;;;;;;;18.01;42.66;98996.36;223578;183;138865;-67
2023/04/16 15:50:54;;;;;;;6.40;4.40;;;;;;;17.93;42.90;98995.30;223796;183;136605;-66
2023/04/16 15:55:59;;;;;;;5.50;4.10;;;;;;;17.90;42.76;98999.01;223680;183;147363;-74
2023/04/16 16:01:03;;;;;;;6.90;4.60;;;;;;;17.77;42.29;98999.29;223771;183;138071;-69
2023/04/16 16:06:07;;;;;;;44.80;31.70;;;;;;;17.71;42.89;99000.31;223674;183;136858;-75
2023/04/16 16:11:12;;;;;;;9.60;5.50;;;;;;;17.69;42.64;99005.17;223800;183;147245;-72
2023/04/16 16:16:16;;;;;;;8.20;5.40;;;;;;;17.60;42.80;99011.97;223589;183;138073;-71
2023/04/16 16:21:19;;;;;;;7.00;5.20;;;;;;;17.46;43.08;99020.20;223719;183;136814;-70
2023/04/16 16:26:23;;;;;;;8.50;5.20;;;;;;;17.34;43.15;99015.90;223703;183;147073;-71
2023/04/16 16:31:26;;;;;;;6.80;4.70;;;;;;;17.23;43.09;99022.11;223680;183;139001;-71
2023/04/16 16:36:33;;;;;;;6.50;4.90;;;;;;;17.11;43.31;99025.92;223773;183;136723;-71
2023/04/16 16:41:40;;;;;;;6.90;5.20;;;;;;;16.96;43.88;99034.36;223715;183;147039;-72
2023/04/16 16:46:45;;;;;;;7.80;5.40;;;;;;;16.81;44.47;99038.58;223732;183;138721;-71
2023/04/16 16:51:49;;;;;;;9.20;4.90;;;;;;;16.68;44.84;99041.09;223714;183;137897;-73
2023/04/16 16:56:53;;;;;;;8.80;5.80;;;;;;;16.60;45.50;99045.63;223762;183;147555;-73
2023/04/16 17:01:57;;;;;;;10.00;6.50;;;;;;;16.50;46.10;99052.30;223489;183;139285;-77
2023/04/16 17:07:01;;;;;;;8.00;6.20;;;;;;;16.41;46.54;99052.64;220216;184;137245;-76
2023/04/16 17:12:05;;;;;;;12.60;7.30;;;;;;;16.31;46.93;99059.77;223683;184;146838;-74
2023/04/16 17:17:08;;;;;;;10.40;7.80;;;;;;;16.19;47.11;99064.85;223763;183;138158;-74
2023/04/16 17:22:12;;;;;;;11.50;8.30;;;;;;;16.10;47.59;99072.80;223719;183;137314;-75
2023/04/16 17:27:15;;;;;;;9.30;7.30;;;;;;;16.00;47.72;99077.55;223770;183;146635;-77
2023/04/16 17:32:19;;;;;;;10.60;7.70;;;;;;;15.92;47.97;99083.41;223719;183;138223;-76
2023/04/16 17:37:22;;;;;;;11.00;8.00;;;;;;;15.83;48.22;99085.56;223655;183;137598;-76
2023/04/16 17:42:26;;;;;;;11.70;8.50;;;;;;;15.74;48.35;99091.34;223651;183;147470;-74
2023/04/16 17:47:29;;;;;;;11.20;8.40;;;;;;;15.64;48.46;99090.17;223680;183;138209;-74
2023/04/16 17:52:36;;;;;;;193.00;136.00;;;;;;;15.59;48.79;99094.31;223821;183;136622;-72
2023/04/16 17:57:40;;;;;;;14.30;10.30;;;;;;;15.76;49.48;99097.09;223787;180;147188;-75
2023/04/16 18:02:44;;;;;;;13.70;9.30;;;;;;;15.73;48.39;99098.05;223658;183;138967;-75
2023/04/16 18:07:47;;;;;;;14.80;8.90;;;;;;;15.56;48.68;99096.91;223605;184;137724;-76
2023/04/16 18:12:50;;;;;;;16.30;13.40;;;;;;;15.42;49.14;99104.65;223783;183;147306;-74
2023/04/16 18:17:54;;;;;;;13.00;9.70;;;;;;;15.29;49.76;99110.02;223692;183;139013;-74
2023/04/16 18:22:57;;;;;;;16.90;10.20;;;;;;;15.14;50.04;99112.46;223752;183;136828;-74
2023/04/16 18:28:05;;;;;;;14.00;9.70;;;;;;;14.99;50.61;99114.35;223827;183;149413;-75
2023/04/16 18:33:08;;;;;;;16.20;10.90;;;;;;;14.89;50.81;99125.51;223746;183;138376;-77
2023/04/16 18:38:14;;;;;;;15.20;10.50;;;;;;;14.81;50.77;99124.36;223740;184;138150;-74
2023/04/16 18:43:17;;;;;;;14.70;11.10;;;;;;;14.76;50.67;99132.78;223689;183;147794;-73
2023/04/16 18:48:21;;;;;;;53.20;41.10;;;;;;;14.77;51.32;99130.94;223699;183;138215;-73
2023/04/16 18:53:24;;;;;;;17.90;12.50;;;;;;;14.80;50.73;99133.15;223810;183;137360;-70
2023/04/16 18:58:28;;;;;;;15.10;11.10;;;;;;;14.71;50.82;99137.25;223768;182;147711;-72
2023/04/16 19:03:32;;;;;;;15.70;11.10;;;;;;;14.61;50.90;99134.98;223825;182;138453;-71
2023/04/16 19:08:35;;;;;;;18.30;11.70;;;;;;;14.53;51.58;99135.14;223711;183;139673;-71
2023/04/16 19:13:39;;;;;;;15.60;11.30;;;;;;;14.42;52.17;99134.98;223706;183;147369;-70
2023/04/16 19:18:42;;;;;;;16.60;11.60;;;;;;;14.33;52.45;99138.73;223812;183;140294;-72
2023/04/16 19:23:46;;;;;;;63.90;49.20;;;;;;;14.22;52.74;99142.79;223657;183;137908;-70
2023/04/16 19:28:51;;;;;;;19.30;13.00;;;;;;;14.15;53.11;99135.77;223846;183;147223;-74
2023/04/16 19:33:54;;;;;;;139.00;102.60;;;;;;;14.07;53.36;99138.91;222372;183;138590;-71
2023/04/16 19:38:58;;;;;;;28.40;19.80;;;;;;;14.03;53.48;99137.58;223822;182;137629;-70
2023/04/16 19:44:04;;;;;;;17.10;11.80;;;;;;;13.94;53.80;99131.10;223791;183;149641;-70
2023/04/16 19:49:07;;;;;;;;;;;;;;;13.86;53.63;99134.96;223825;182;138755;-73
2023/04/16 19:54:12;;;;;;;17.70;12.50;;;;;;;13.79;53.69;99135.08;223742;183;131106;-73
2023/04/16 19:59:15;;;;;;;19.30;13.10;;;;;;;13.75;53.69;99137.17;223843;183;147241;-71
2023/04/16 20:04:19;;;;;;;18.00;12.20;;;;;;;13.70;53.89;99133.05;222254;183;138341;-76
2023/04/16 20:09:25;;;;;;;19.30;12.40;;;;;;;13.67;53.81;99131.86;223757;183;137652;-71
2023/04/16 20:14:28;;;;;;;17.30;12.00;;;;;;;13.66;53.82;99131.40;223800;183;149176;-71
2023/04/16 20:19:36;;;;;;;20.40;12.20;;;;;;;13.64;53.68;99128.88;223755;183;138745;-71
2023/04/16 20:24:45;;;;;;;18.80;12.30;;;;;;;13.62;53.67;99128.15;223675;182;137530;-71
2023/04/16 20:29:50;;;;;;;22.30;13.20;;;;;;;13.58;53.75;99129.14;223811;182;148036;-71
2023/04/16 20:34:54;;;;;;;22.90;14.90;;;;;;;13.54;53.95;99127.98;223707;183;139406;-71
2023/04/16 20:39:58;;;;;;;17.90;13.50;;;;;;;13.52;54.12;99125.54;221753;183;138450;-69
2023/04/16 20:45:01;;;;;;;23.10;14.30;;;;;;;13.48;54.31;99126.45;223703;184;147423;-71
2023/04/16 20:50:05;;;;;;;22.30;14.90;;;;;;;13.45;54.51;99119.56;223749;183;138408;-71
2023/04/16 20:55:09;;;;;;;24.90;15.90;;;;;;;13.38;54.81;99120.98;223766;183;137245;-69
2023/04/16 21:00:14;;;;;;;24.60;15.90;;;;;;;13.34;55.03;99119.50;223807;183;146473;-72
2023/04/16 21:05:20;;;;;;;23.80;15.50;;;;;;;13.23;55.37;99118.52;222261;182;139257;-72
2023/04/16 21:10:24;;;;;;;23.10;15.70;;;;;;;13.11;55.66;99116.15;222201;183;137575;-71
2023/04/16 21:15:27;;;;;;;23.50;16.10;;;;;;;13.01;55.83;99117.85;223235;183;147804;-71
2023/04/16 21:20:35;;;;;;;24.50;15.90;;;;;;;12.95;56.00;99120.13;223653;183;138394;-70
2023/04/16 21:25:39;;;;;;;29.40;18.00;;;;;;;12.89;56.11;99121.06;221058;183;138181;-71
2023/04/16 21:30:43;;;;;;;25.60;17.20;;;;;;;12.83;56.39;99122.04;222471;183;147381;-72
2023/04/16 21:35:55;;;;;;;24.50;16.70;;;;;;;12.74;56.37;99119.25;223813;183;138384;-73
2023/04/16 21:41:00;;;;;;;23.10;16.00;;;;;;;12.73;56.54;99113.08;223811;183;137173;-73
2023/04/16 21:46:04;;;;;;;23.70;16.20;;;;;;;12.73;56.51;99111.27;223015;183;147531;-75
2023/04/16 21:51:08;;;;;;;24.60;16.60;;;;;;;12.75;56.61;99112.62;223432;182;138728;-74
2023/04/16 21:56:12;;;;;;;23.40;16.20;;;;;;;12.78;56.71;99115.41;222155;183;137520;-75
2023/04/16 22:01:16;;;;;;;27.90;16.80;;;;;;;12.74;56.82;99116.95;223752;183;146729;-73
2023/04/16 22:06:19;;;;;;;26.70;17.20;;;;;;;12.68;57.08;99119.88;223756;183;138361;-74
2023/04/16 22:11:23;;;;;;;24.40;16.80;;;;;;;12.60;57.46;99113.64;223854;183;138103;-74
2023/04/16 22:16:26;;;;;;;24.90;17.10;;;;;;;12.57;57.71;99113.15;223819;183;149345;-73
2023/04/16 22:21:30;;;;;;;25.60;17.70;;;;;;;12.52;58.15;99119.16;223604;182;138500;-73
2023/04/16 22:26:33;;;;;;;25.10;17.40;;;;;;;12.46;58.54;99123.48;223751;183;136986;-73
2023/04/16 22:31:37;;;;;;;24.40;17.00;;;;;;;12.40;58.80;99122.49;223655;183;147201;-74
2023/04/16 22:36:40;;;;;;;26.10;17.30;;;;;;;12.36;59.25;99133.45;223722;183;139465;-74
2023/04/16 22:41:44;;;;;;;25.10;16.90;;;;;;;12.32;59.56;99130.89;223043;183;137136;-75
2023/04/16 22:46:48;;;;;;;25.40;16.00;;;;;;;12.28;59.75;99133.06;221867;183;147638;-77
2023/04/16 22:51:51;;;;;;;21.50;16.10;;;;;;;12.26;60.03;99135.34;220135;183;141510;-75
2023/04/16 22:56:56;;;;;;;27.80;16.60;;;;;;;12.21;60.16;99132.50;223784;183;137455;-74
2023/04/16 23:01:59;;;;;;;23.80;16.20;;;;;;;12.15;60.45;99130.81;223796;184;145385;-74
2023/04/16 23:07:03;;;;;;;23.60;16.90;;;;;;;12.08;60.74;99125.91;223610;183;138979;-74
2023/04/16 23:12:06;;;;;;;23.50;15.60;;;;;;;12.03;60.84;99128.91;223933;183;138295;-73
2023/04/16 23:17:11;;;;;;;20.50;15.00;;;;;;;11.99;61.08;99126.88;223717;184;147244;-74
2023/04/16 23:22:15;;;;;;;20.70;15.50;;;;;;;11.94;61.22;99120.42;223793;183;138668;-74
2023/04/16 23:27:18;;;;;;;20.30;14.50;;;;;;;11.88;61.48;99119.60;223742;183;139045;-74
2023/04/16 23:32:22;;;;;;;20.40;15.00;;;;;;;11.82;61.61;99118.35;223785;183;147378;-75
2023/04/16 23:37:25;;;;;;;18.90;14.10;;;;;;;11.77;62.03;99118.29;223768;183;138085;-75